sensor_id;sensor_type;location;lat;lon;timestamp;pressure;altitude;pressure_sealevel;temperature;humidity
76808;BME280;65758;45.458;11.062;2024-02-14T00:00:26;101651.85;;;8.24;59.09
76808;BME280;65758;45.458;11.062;2024-02-14T00:02:53;101654.11;;;8.23;59.48
76808;BME280;65758;45.458;11.062;2024-02-14T00:05:20;101657.31;;;8.21;59.44
76808;BME280;65758;45.458;11.062;2024-02-14T00:07:47;101656.90;;;8.18;59.73
76808;BME280;65758;45.458;11.062;2024-02-14T00:10:14;101658.30;;;8.17;60.05
76808;BME280;65758;45.458;11.062;2024-02-14T00:12:41;101659.90;;;8.17;60.21
76808;BME280;65758;45.458;11.062;2024-02-14T00:15:08;101661.71;;;8.17;60.23
76808;BME280;65758;45.458;11.062;2024-02-14T00:17:35;101666.44;;;8.19;59.79
76808;BME280;65758;45.458;11.062;2024-02-14T00:20:03;101668.29;;;8.20;59.72
76808;BME280;65758;45.458;11.062;2024-02-14T00:22:31;101666.90;;;8.19;59.54
76808;BME280;65758;45.458;11.062;2024-02-14T00:24:58;101670.26;;;8.17;59.60
76808;BME280;65758;45.458;11.062;2024-02-14T00:27:25;101666.85;;;8.18;59.84
76808;BME280;65758;45.458;11.062;2024-02-14T00:29:53;101670.69;;;8.18;59.65
76808;BME280;65758;45.458;11.062;2024-02-14T00:32:22;101670.05;;;8.19;60.07
76808;BME280;65758;45.458;11.062;2024-02-14T00:34:49;101666.98;;;8.20;59.80
76808;BME280;65758;45.458;11.062;2024-02-14T00:37:19;101668.50;;;8.20;59.59
76808;BME280;65758;45.458;11.062;2024-02-14T00:39:46;101670.45;;;8.19;59.89
76808;BME280;65758;45.458;11.062;2024-02-14T00:42:15;101672.86;;;8.20;59.85
76808;BME280;65758;45.458;11.062;2024-02-14T00:44:43;101674.95;;;8.19;59.85
76808;BME280;65758;45.458;11.062;2024-02-14T00:47:09;101674.41;;;8.17;59.60
76808;BME280;65758;45.458;11.062;2024-02-14T00:49:36;101672.05;;;8.16;59.51
76808;BME280;65758;45.458;11.062;2024-02-14T00:52:05;101671.30;;;8.16;59.71
76808;BME280;65758;45.458;11.062;2024-02-14T00:54:33;101674.35;;;8.16;59.71
76808;BME280;65758;45.458;11.062;2024-02-14T00:57:00;101673.68;;;8.16;59.94
76808;BME280;65758;45.458;11.062;2024-02-14T00:59:27;101676.80;;;8.14;59.53
76808;BME280;65758;45.458;11.062;2024-02-14T01:01:54;101679.92;;;8.12;59.61
76808;BME280;65758;45.458;11.062;2024-02-14T01:04:21;101680.39;;;8.12;60.10
76808;BME280;65758;45.458;11.062;2024-02-14T01:06:47;101684.70;;;8.15;61.20
76808;BME280;65758;45.458;11.062;2024-02-14T01:09:16;101684.19;;;8.20;59.97
76808;BME280;65758;45.458;11.062;2024-02-14T01:11:44;101686.64;;;8.18;59.48
76808;BME280;65758;45.458;11.062;2024-02-14T01:14:11;101685.62;;;8.14;59.10
76808;BME280;65758;45.458;11.062;2024-02-14T01:16:45;101684.61;;;8.08;59.34
76808;BME280;65758;45.458;11.062;2024-02-14T01:19:13;101684.65;;;8.08;59.80
76808;BME280;65758;45.458;11.062;2024-02-14T01:21:41;101681.12;;;8.09;60.25
76808;BME280;65758;45.458;11.062;2024-02-14T01:24:08;101680.94;;;8.12;60.41
76808;BME280;65758;45.458;11.062;2024-02-14T01:26:35;101686.41;;;8.14;59.80
76808;BME280;65758;45.458;11.062;2024-02-14T01:29:03;101684.74;;;8.15;60.15
76808;BME280;65758;45.458;11.062;2024-02-14T01:31:35;101684.61;;;8.17;60.16
76808;BME280;65758;45.458;11.062;2024-02-14T01:34:02;101681.58;;;8.17;59.83
76808;BME280;65758;45.458;11.062;2024-02-14T01:36:30;101679.57;;;8.14;59.43
76808;BME280;65758;45.458;11.062;2024-02-14T01:38:57;101681.43;;;8.09;58.89
76808;BME280;65758;45.458;11.062;2024-02-14T01:41:46;101681.70;;;8.04;59.15
76808;BME280;65758;45.458;11.062;2024-02-14T01:44:16;101682.96;;;8.03;58.98
76808;BME280;65758;45.458;11.062;2024-02-14T01:46:44;101686.23;;;8.02;59.11
76808;BME280;65758;45.458;11.062;2024-02-14T01:49:11;101688.86;;;8.02;59.37
76808;BME280;65758;45.458;11.062;2024-02-14T01:51:40;101686.34;;;8.05;59.48
76808;BME280;65758;45.458;11.062;2024-02-14T01:54:12;101683.98;;;8.08;59.55
76808;BME280;65758;45.458;11.062;2024-02-14T01:56:40;101682.00;;;8.08;59.06
76808;BME280;65758;45.458;11.062;2024-02-14T01:59:08;101684.11;;;8.07;59.13
76808;BME280;65758;45.458;11.062;2024-02-14T02:01:35;101682.80;;;8.05;60.01
76808;BME280;65758;45.458;11.062;2024-02-14T02:04:03;101681.65;;;8.05;60.56
76808;BME280;65758;45.458;11.062;2024-02-14T02:06:31;101680.98;;;8.05;60.20
76808;BME280;65758;45.458;11.062;2024-02-14T02:09:00;101679.68;;;8.07;60.19
76808;BME280;65758;45.458;11.062;2024-02-14T02:11:27;101680.59;;;8.09;60.98
76808;BME280;65758;45.458;11.062;2024-02-14T02:13:54;101681.14;;;8.12;60.88
76808;BME280;65758;45.458;11.062;2024-02-14T02:16:21;101679.50;;;8.13;60.49
76808;BME280;65758;45.458;11.062;2024-02-14T02:18:48;101679.33;;;8.15;60.88
76808;BME280;65758;45.458;11.062;2024-02-14T02:21:16;101678.65;;;8.17;60.90
76808;BME280;65758;45.458;11.062;2024-02-14T02:23:46;101679.48;;;8.21;60.67
76808;BME280;65758;45.458;11.062;2024-02-14T02:26:14;101678.04;;;8.22;61.16
76808;BME280;65758;45.458;11.062;2024-02-14T02:28:41;101678.61;;;8.23;60.66
76808;BME280;65758;45.458;11.062;2024-02-14T02:31:09;101677.56;;;8.25;60.83
76808;BME280;65758;45.458;11.062;2024-02-14T02:33:37;101677.25;;;8.25;60.17
76808;BME280;65758;45.458;11.062;2024-02-14T02:36:04;101673.19;;;8.23;60.16
76808;BME280;65758;45.458;11.062;2024-02-14T02:38:33;101672.34;;;8.20;60.25
76808;BME280;65758;45.458;11.062;2024-02-14T02:41:00;101674.21;;;8.15;60.41
76808;BME280;65758;45.458;11.062;2024-02-14T02:43:27;101676.02;;;8.10;60.20
76808;BME280;65758;45.458;11.062;2024-02-14T02:45:55;101678.29;;;8.04;59.87
76808;BME280;65758;45.458;11.062;2024-02-14T02:48:23;101678.84;;;7.98;59.82
76808;BME280;65758;45.458;11.062;2024-02-14T02:50:51;101680.96;;;7.93;59.81
76808;BME280;65758;45.458;11.062;2024-02-14T02:53:19;101681.17;;;7.89;60.13
76808;BME280;65758;45.458;11.062;2024-02-14T02:55:45;101684.90;;;7.89;60.42
76808;BME280;65758;45.458;11.062;2024-02-14T02:58:12;101686.54;;;7.89;60.29
76808;BME280;65758;45.458;11.062;2024-02-14T03:00:40;101683.48;;;7.87;60.21
76808;BME280;65758;45.458;11.062;2024-02-14T03:03:08;101687.89;;;7.85;60.16
76808;BME280;65758;45.458;11.062;2024-02-14T03:05:35;101690.29;;;7.80;60.25
76808;BME280;65758;45.458;11.062;2024-02-14T03:08:02;101691.88;;;7.75;60.36
76808;BME280;65758;45.458;11.062;2024-02-14T03:10:29;101692.65;;;7.71;60.57
76808;BME280;65758;45.458;11.062;2024-02-14T03:12:57;101693.36;;;7.71;60.64
76808;BME280;65758;45.458;11.062;2024-02-14T03:15:24;101696.73;;;7.72;60.83
76808;BME280;65758;45.458;11.062;2024-02-14T03:17:52;101696.97;;;7.73;60.78
76808;BME280;65758;45.458;11.062;2024-02-14T03:20:19;101699.50;;;7.75;61.00
76808;BME280;65758;45.458;11.062;2024-02-14T03:22:47;101698.60;;;7.76;60.79
76808;BME280;65758;45.458;11.062;2024-02-14T03:25:19;101703.95;;;7.77;61.45
76808;BME280;65758;45.458;11.062;2024-02-14T03:27:47;101708.30;;;7.77;61.85
76808;BME280;65758;45.458;11.062;2024-02-14T03:30:16;101713.08;;;7.75;61.96
76808;BME280;65758;45.458;11.062;2024-02-14T03:32:45;101709.91;;;7.73;62.03
76808;BME280;65758;45.458;11.062;2024-02-14T03:35:13;101711.49;;;7.70;62.01
76808;BME280;65758;45.458;11.062;2024-02-14T03:37:41;101713.73;;;7.70;62.06
76808;BME280;65758;45.458;11.062;2024-02-14T03:40:10;101715.05;;;7.69;61.96
76808;BME280;65758;45.458;11.062;2024-02-14T03:42:37;101719.08;;;7.67;61.85
76808;BME280;65758;45.458;11.062;2024-02-14T03:45:07;101722.98;;;7.65;62.02
76808;BME280;65758;45.458;11.062;2024-02-14T03:47:35;101722.99;;;7.63;62.48
76808;BME280;65758;45.458;11.062;2024-02-14T03:50:07;101728.72;;;7.63;62.88
76808;BME280;65758;45.458;11.062;2024-02-14T03:52:35;101735.69;;;7.60;63.22
76808;BME280;65758;45.458;11.062;2024-02-14T03:55:02;101741.73;;;7.58;63.33
76808;BME280;65758;45.458;11.062;2024-02-14T03:57:29;101742.34;;;7.55;63.56
76808;BME280;65758;45.458;11.062;2024-02-14T03:59:59;101744.44;;;7.53;63.85
76808;BME280;65758;45.458;11.062;2024-02-14T04:02:37;101751.31;;;7.51;63.61
76808;BME280;65758;45.458;11.062;2024-02-14T04:05:07;101757.80;;;7.49;64.01
76808;BME280;65758;45.458;11.062;2024-02-14T04:07:34;101762.06;;;7.45;64.56
76808;BME280;65758;45.458;11.062;2024-02-14T04:10:01;101763.20;;;7.42;64.68
76808;BME280;65758;45.458;11.062;2024-02-14T04:12:28;101766.70;;;7.38;64.44
76808;BME280;65758;45.458;11.062;2024-02-14T04:14:55;101768.66;;;7.34;64.84
76808;BME280;65758;45.458;11.062;2024-02-14T04:17:22;101768.60;;;7.30;64.88
76808;BME280;65758;45.458;11.062;2024-02-14T04:19:49;101765.92;;;7.25;65.23
76808;BME280;65758;45.458;11.062;2024-02-14T04:22:16;101766.80;;;7.24;65.34
76808;BME280;65758;45.458;11.062;2024-02-14T04:24:43;101765.70;;;7.20;65.58
76808;BME280;65758;45.458;11.062;2024-02-14T04:27:10;101768.32;;;7.18;65.77
76808;BME280;65758;45.458;11.062;2024-02-14T04:29:37;101772.20;;;7.18;65.79
76808;BME280;65758;45.458;11.062;2024-02-14T04:32:03;101769.17;;;7.17;66.10
76808;BME280;65758;45.458;11.062;2024-02-14T04:34:31;101772.77;;;7.16;66.21
76808;BME280;65758;45.458;11.062;2024-02-14T04:36:58;101771.55;;;7.14;66.11
76808;BME280;65758;45.458;11.062;2024-02-14T04:39:25;101773.11;;;7.10;65.65
76808;BME280;65758;45.458;11.062;2024-02-14T04:41:52;101770.94;;;7.07;65.69
76808;BME280;65758;45.458;11.062;2024-02-14T04:44:28;101775.33;;;7.04;65.95
76808;BME280;65758;45.458;11.062;2024-02-14T04:46:56;101789.89;;;7.02;65.31
76808;BME280;65758;45.458;11.062;2024-02-14T04:49:25;101790.59;;;6.99;65.66
76808;BME280;65758;45.458;11.062;2024-02-14T04:51:52;101793.83;;;6.95;65.97
76808;BME280;65758;45.458;11.062;2024-02-14T04:54:19;101796.14;;;6.90;66.62
76808;BME280;65758;45.458;11.062;2024-02-14T04:56:46;101796.68;;;6.87;66.47
76808;BME280;65758;45.458;11.062;2024-02-14T04:59:19;101793.13;;;6.87;66.72
76808;BME280;65758;45.458;11.062;2024-02-14T05:01:46;101794.45;;;6.89;66.88
76808;BME280;65758;45.458;11.062;2024-02-14T05:04:12;101792.55;;;6.91;66.52
76808;BME280;65758;45.458;11.062;2024-02-14T05:06:39;101786.81;;;6.93;66.49
76808;BME280;65758;45.458;11.062;2024-02-14T05:09:07;101787.59;;;6.92;66.03
76808;BME280;65758;45.458;11.062;2024-02-14T05:11:33;101789.80;;;6.92;66.01
76808;BME280;65758;45.458;11.062;2024-02-14T05:14:01;101789.16;;;6.89;65.79
76808;BME280;65758;45.458;11.062;2024-02-14T05:16:28;101789.63;;;6.86;66.13
76808;BME280;65758;45.458;11.062;2024-02-14T05:18:55;101782.67;;;6.83;65.89
76808;BME280;65758;45.458;11.062;2024-02-14T05:21:22;101778.98;;;6.81;66.06
76808;BME280;65758;45.458;11.062;2024-02-14T05:23:49;101781.57;;;6.79;65.74
76808;BME280;65758;45.458;11.062;2024-02-14T05:26:17;101786.30;;;6.77;66.12
76808;BME280;65758;45.458;11.062;2024-02-14T05:28:44;101782.73;;;6.77;66.13
76808;BME280;65758;45.458;11.062;2024-02-14T05:31:11;101782.77;;;6.76;66.21
76808;BME280;65758;45.458;11.062;2024-02-14T05:33:37;101785.51;;;6.76;66.37
76808;BME280;65758;45.458;11.062;2024-02-14T05:36:05;101786.69;;;6.73;66.15
76808;BME280;65758;45.458;11.062;2024-02-14T05:38:32;101787.91;;;6.72;66.38
76808;BME280;65758;45.458;11.062;2024-02-14T05:41:01;101789.02;;;6.75;67.31
76808;BME280;65758;45.458;11.062;2024-02-14T05:43:28;101789.42;;;6.76;66.61
76808;BME280;65758;45.458;11.062;2024-02-14T05:45:55;101786.44;;;6.77;66.75
76808;BME280;65758;45.458;11.062;2024-02-14T05:48:22;101791.16;;;6.75;66.13
76808;BME280;65758;45.458;11.062;2024-02-14T05:50:49;101797.19;;;6.72;66.41
76808;BME280;65758;45.458;11.062;2024-02-14T05:53:16;101801.31;;;6.70;66.35
76808;BME280;65758;45.458;11.062;2024-02-14T05:55:43;101805.13;;;6.69;66.78
76808;BME280;65758;45.458;11.062;2024-02-14T05:58:10;101808.77;;;6.69;66.66
76808;BME280;65758;45.458;11.062;2024-02-14T06:00:38;101811.35;;;6.67;66.10
76808;BME280;65758;45.458;11.062;2024-02-14T06:03:05;101814.02;;;6.64;66.11
76808;BME280;65758;45.458;11.062;2024-02-14T06:05:34;101809.02;;;6.64;66.21
76808;BME280;65758;45.458;11.062;2024-02-14T06:08:01;101815.65;;;6.64;65.78
76808;BME280;65758;45.458;11.062;2024-02-14T06:10:30;101817.63;;;6.64;65.87
76808;BME280;65758;45.458;11.062;2024-02-14T06:12:57;101819.35;;;6.63;65.73
76808;BME280;65758;45.458;11.062;2024-02-14T06:15:23;101817.20;;;6.62;65.60
76808;BME280;65758;45.458;11.062;2024-02-14T06:17:50;101822.49;;;6.61;65.58
76808;BME280;65758;45.458;11.062;2024-02-14T06:20:18;101820.66;;;6.62;65.92
76808;BME280;65758;45.458;11.062;2024-02-14T06:22:45;101822.31;;;6.63;65.68
76808;BME280;65758;45.458;11.062;2024-02-14T06:25:26;101818.27;;;6.65;65.66
76808;BME280;65758;45.458;11.062;2024-02-14T06:27:53;101817.13;;;6.68;66.44
76808;BME280;65758;45.458;11.062;2024-02-14T06:30:23;101822.13;;;6.69;66.34
76808;BME280;65758;45.458;11.062;2024-02-14T06:32:52;101825.83;;;6.70;66.49
76808;BME280;65758;45.458;11.062;2024-02-14T06:35:19;101832.13;;;6.66;66.60
76808;BME280;65758;45.458;11.062;2024-02-14T06:37:47;101835.98;;;6.62;66.85
76808;BME280;65758;45.458;11.062;2024-02-14T06:40:28;101837.95;;;6.59;66.57
76808;BME280;65758;45.458;11.062;2024-02-14T06:42:56;101844.99;;;6.56;66.49
76808;BME280;65758;45.458;11.062;2024-02-14T06:45:26;101848.04;;;6.55;66.81
76808;BME280;65758;45.458;11.062;2024-02-14T06:47:54;101847.82;;;6.55;66.43
76808;BME280;65758;45.458;11.062;2024-02-14T06:50:22;101850.84;;;6.56;66.25
76808;BME280;65758;45.458;11.062;2024-02-14T06:52:48;101853.87;;;6.56;66.61
76808;BME280;65758;45.458;11.062;2024-02-14T06:55:15;101856.59;;;6.57;66.80
76808;BME280;65758;45.458;11.062;2024-02-14T06:57:42;101862.26;;;6.59;67.06
76808;BME280;65758;45.458;11.062;2024-02-14T07:00:09;101867.11;;;6.61;67.07
76808;BME280;65758;45.458;11.062;2024-02-14T07:02:37;101864.05;;;6.64;67.51
76808;BME280;65758;45.458;11.062;2024-02-14T07:05:04;101863.23;;;6.66;67.37
76808;BME280;65758;45.458;11.062;2024-02-14T07:07:33;101869.68;;;6.70;67.20
76808;BME280;65758;45.458;11.062;2024-02-14T07:10:00;101872.77;;;6.75;67.34
76808;BME280;65758;45.458;11.062;2024-02-14T07:12:28;101877.91;;;6.81;67.68
76808;BME280;65758;45.458;11.062;2024-02-14T07:14:57;101885.39;;;6.87;67.43
76808;BME280;65758;45.458;11.062;2024-02-14T07:17:24;101882.91;;;6.93;67.27
76808;BME280;65758;45.458;11.062;2024-02-14T07:19:51;101883.60;;;6.99;66.92
76808;BME280;65758;45.458;11.062;2024-02-14T07:22:18;101884.70;;;7.07;66.77
76808;BME280;65758;45.458;11.062;2024-02-14T07:24:48;101888.58;;;7.14;67.06
76808;BME280;65758;45.458;11.062;2024-02-14T07:27:15;101889.90;;;7.23;67.10
76808;BME280;65758;45.458;11.062;2024-02-14T07:29:43;101894.39;;;7.31;67.11
76808;BME280;65758;45.458;11.062;2024-02-14T07:32:11;101895.66;;;7.38;67.17
76808;BME280;65758;45.458;11.062;2024-02-14T07:34:39;101894.80;;;7.45;66.88
76808;BME280;65758;45.458;11.062;2024-02-14T07:37:09;101900.01;;;7.51;66.91
76808;BME280;65758;45.458;11.062;2024-02-14T07:39:35;101904.81;;;7.59;66.98
76808;BME280;65758;45.458;11.062;2024-02-14T07:42:03;101906.73;;;7.67;67.37
76808;BME280;65758;45.458;11.062;2024-02-14T07:44:30;101911.58;;;7.77;66.72
76808;BME280;65758;45.458;11.062;2024-02-14T07:46:58;101902.73;;;7.85;66.54
76808;BME280;65758;45.458;11.062;2024-02-14T07:49:30;101904.48;;;7.94;66.15
76808;BME280;65758;45.458;11.062;2024-02-14T07:51:57;101906.91;;;7.99;66.38
76808;BME280;65758;45.458;11.062;2024-02-14T07:54:24;101907.80;;;8.05;65.99
76808;BME280;65758;45.458;11.062;2024-02-14T07:56:51;101910.70;;;8.11;65.90
76808;BME280;65758;45.458;11.062;2024-02-14T07:59:18;101914.60;;;8.17;66.26
76808;BME280;65758;45.458;11.062;2024-02-14T08:01:47;101917.23;;;8.24;66.44
76808;BME280;65758;45.458;11.062;2024-02-14T08:04:14;101919.46;;;8.29;65.98
76808;BME280;65758;45.458;11.062;2024-02-14T08:06:45;101923.95;;;8.36;66.22
76808;BME280;65758;45.458;11.062;2024-02-14T08:09:12;101929.40;;;8.45;66.83
76808;BME280;65758;45.458;11.062;2024-02-14T08:11:39;101922.33;;;8.54;67.07
76808;BME280;65758;45.458;11.062;2024-02-14T08:14:06;101922.32;;;8.63;66.70
76808;BME280;65758;45.458;11.062;2024-02-14T08:16:33;101925.17;;;8.71;66.43
76808;BME280;65758;45.458;11.062;2024-02-14T08:19:02;101926.19;;;8.79;66.37
76808;BME280;65758;45.458;11.062;2024-02-14T08:21:29;101922.50;;;8.88;68.81
76808;BME280;65758;45.458;11.062;2024-02-14T08:23:58;101923.63;;;9.01;68.73
76808;BME280;65758;45.458;11.062;2024-02-14T08:26:27;101924.73;;;9.10;67.87
76808;BME280;65758;45.458;11.062;2024-02-14T08:28:55;101923.19;;;9.18;66.93
76808;BME280;65758;45.458;11.062;2024-02-14T08:31:22;101924.52;;;9.25;67.57
76808;BME280;65758;45.458;11.062;2024-02-14T08:33:49;101925.60;;;9.33;67.95
76808;BME280;65758;45.458;11.062;2024-02-14T08:36:17;101926.14;;;9.42;68.23
76808;BME280;65758;45.458;11.062;2024-02-14T08:38:46;101924.60;;;9.50;67.96
76808;BME280;65758;45.458;11.062;2024-02-14T08:41:14;101923.56;;;9.57;67.61
76808;BME280;65758;45.458;11.062;2024-02-14T08:43:41;101927.77;;;9.66;67.70
76808;BME280;65758;45.458;11.062;2024-02-14T08:46:13;101930.79;;;9.75;68.48
76808;BME280;65758;45.458;11.062;2024-02-14T08:48:40;101934.52;;;9.84;68.28
76808;BME280;65758;45.458;11.062;2024-02-14T08:51:14;101934.09;;;9.95;68.11
76808;BME280;65758;45.458;11.062;2024-02-14T08:53:41;101932.36;;;10.02;67.91
76808;BME280;65758;45.458;11.062;2024-02-14T08:56:12;101930.77;;;10.09;66.63
76808;BME280;65758;45.458;11.062;2024-02-14T08:58:41;101933.48;;;10.15;65.84
76808;BME280;65758;45.458;11.062;2024-02-14T09:01:08;101934.56;;;10.24;66.63
76808;BME280;65758;45.458;11.062;2024-02-14T09:03:44;101936.59;;;10.35;66.90
76808;BME280;65758;45.458;11.062;2024-02-14T09:06:17;101937.06;;;10.44;65.94
76808;BME280;65758;45.458;11.062;2024-02-14T09:08:46;101936.63;;;10.51;65.56
76808;BME280;65758;45.458;11.062;2024-02-14T09:11:14;101928.02;;;10.61;64.99
76808;BME280;65758;45.458;11.062;2024-02-14T09:13:41;101919.35;;;10.69;65.42
76808;BME280;65758;45.458;11.062;2024-02-14T09:16:09;101917.05;;;10.77;64.50
76808;BME280;65758;45.458;11.062;2024-02-14T09:18:37;101918.33;;;10.86;64.56
76808;BME280;65758;45.458;11.062;2024-02-14T09:21:04;101916.61;;;10.93;64.02
76808;BME280;65758;45.458;11.062;2024-02-14T09:23:32;101915.46;;;11.00;63.84
76808;BME280;65758;45.458;11.062;2024-02-14T09:26:00;101911.56;;;11.08;64.50
76808;BME280;65758;45.458;11.062;2024-02-14T09:28:29;101909.92;;;11.16;63.69
76808;BME280;65758;45.458;11.062;2024-02-14T09:30:56;101907.94;;;11.22;63.29
76808;BME280;65758;45.458;11.062;2024-02-14T09:33:23;101914.05;;;11.29;62.53
76808;BME280;65758;45.458;11.062;2024-02-14T09:35:50;101919.81;;;11.35;62.11
76808;BME280;65758;45.458;11.062;2024-02-14T09:38:19;101921.19;;;11.41;62.42
76808;BME280;65758;45.458;11.062;2024-02-14T09:40:46;101924.23;;;11.48;61.93
76808;BME280;65758;45.458;11.062;2024-02-14T09:45:51;101923.40;;;11.65;62.03
76808;BME280;65758;45.458;11.062;2024-02-14T09:48:19;101924.66;;;11.74;62.92
76808;BME280;65758;45.458;11.062;2024-02-14T09:50:48;101928.06;;;11.84;63.03
76808;BME280;65758;45.458;11.062;2024-02-14T09:53:16;101926.02;;;11.92;61.47
76808;BME280;65758;45.458;11.062;2024-02-14T09:55:45;101925.52;;;11.98;61.00
76808;BME280;65758;45.458;11.062;2024-02-14T09:58:14;101927.21;;;12.06;60.41
76808;BME280;65758;45.458;11.062;2024-02-14T10:00:42;101920.41;;;12.13;59.74
76808;BME280;65758;45.458;11.062;2024-02-14T10:03:17;101921.20;;;12.20;59.80
76808;BME280;65758;45.458;11.062;2024-02-14T10:05:45;101920.10;;;12.30;61.05
76808;BME280;65758;45.458;11.062;2024-02-14T10:08:12;101922.44;;;12.38;59.75
76808;BME280;65758;45.458;11.062;2024-02-14T10:10:39;101922.28;;;12.43;59.30
76808;BME280;65758;45.458;11.062;2024-02-14T10:13:06;101922.78;;;12.47;59.15
76808;BME280;65758;45.458;11.062;2024-02-14T10:15:35;101926.48;;;12.53;60.28
76808;BME280;65758;45.458;11.062;2024-02-14T10:18:02;101926.50;;;12.59;60.25
76808;BME280;65758;45.458;11.062;2024-02-14T10:20:30;101926.98;;;12.65;61.38
76808;BME280;65758;45.458;11.062;2024-02-14T10:23:05;101918.86;;;12.70;61.65
76808;BME280;65758;45.458;11.062;2024-02-14T10:25:34;101908.76;;;12.76;60.89
76808;BME280;65758;45.458;11.062;2024-02-14T10:28:05;101909.13;;;12.80;61.21
76808;BME280;65758;45.458;11.062;2024-02-14T10:30:38;101914.75;;;12.81;61.68
76808;BME280;65758;45.458;11.062;2024-02-14T10:33:05;101911.21;;;12.83;60.26
76808;BME280;65758;45.458;11.062;2024-02-14T10:35:50;101912.59;;;12.88;61.22
76808;BME280;65758;45.458;11.062;2024-02-14T10:38:19;101913.47;;;12.92;60.92
76808;BME280;65758;45.458;11.062;2024-02-14T10:40:47;101909.41;;;12.96;60.41
76808;BME280;65758;45.458;11.062;2024-02-14T10:43:15;101908.75;;;13.02;59.97
76808;BME280;65758;45.458;11.062;2024-02-14T10:45:42;101907.92;;;13.05;58.92
76808;BME280;65758;45.458;11.062;2024-02-14T10:48:11;101910.25;;;13.10;59.15
76808;BME280;65758;45.458;11.062;2024-02-14T10:50:41;101900.57;;;13.14;59.37
76808;BME280;65758;45.458;11.062;2024-02-14T10:53:13;101898.21;;;13.21;58.96
76808;BME280;65758;45.458;11.062;2024-02-14T10:55:45;101899.77;;;13.28;59.51
76808;BME280;65758;45.458;11.062;2024-02-14T10:58:16;101899.16;;;13.34;59.01
76808;BME280;65758;45.458;11.062;2024-02-14T11:00:44;101901.50;;;13.40;58.47
76808;BME280;65758;45.458;11.062;2024-02-14T11:03:13;101896.73;;;13.47;59.21
76808;BME280;65758;45.458;11.062;2024-02-14T11:05:46;101891.20;;;13.56;59.45
76808;BME280;65758;45.458;11.062;2024-02-14T11:08:14;101895.48;;;13.64;59.68
76808;BME280;65758;45.458;11.062;2024-02-14T11:10:41;101894.85;;;13.71;60.07
76808;BME280;65758;45.458;11.062;2024-02-14T11:13:12;101894.73;;;13.78;60.22
76808;BME280;65758;45.458;11.062;2024-02-14T11:15:44;101892.23;;;13.85;59.84
76808;BME280;65758;45.458;11.062;2024-02-14T11:18:13;101891.58;;;13.91;59.10
76808;BME280;65758;45.458;11.062;2024-02-14T11:20:40;101885.94;;;13.98;60.85
76808;BME280;65758;45.458;11.062;2024-02-14T11:23:09;101883.58;;;14.05;60.68
76808;BME280;65758;45.458;11.062;2024-02-14T11:25:38;101886.98;;;14.10;61.29
76808;BME280;65758;45.458;11.062;2024-02-14T11:28:16;101892.89;;;14.16;61.38
76808;BME280;65758;45.458;11.062;2024-02-14T11:30:44;101896.03;;;14.22;61.02
76808;BME280;65758;45.458;11.062;2024-02-14T11:35:42;101891.94;;;14.31;59.50
76808;BME280;65758;45.458;11.062;2024-02-14T11:38:09;101891.45;;;14.37;59.19
76808;BME280;65758;45.458;11.062;2024-02-14T11:40:37;101885.14;;;14.43;60.60
76808;BME280;65758;45.458;11.062;2024-02-14T11:43:11;101880.21;;;14.49;59.77
76808;BME280;65758;45.458;11.062;2024-02-14T11:45:41;101875.80;;;14.52;60.01
76808;BME280;65758;45.458;11.062;2024-02-14T11:48:12;101871.22;;;14.51;59.99
76808;BME280;65758;45.458;11.062;2024-02-14T11:50:41;101863.70;;;14.53;60.03
76808;BME280;65758;45.458;11.062;2024-02-14T11:53:14;101865.63;;;14.51;57.91
76808;BME280;65758;45.458;11.062;2024-02-14T11:55:43;101868.71;;;14.48;58.92
76808;BME280;65758;45.458;11.062;2024-02-14T11:58:11;101861.02;;;14.51;59.28
76808;BME280;65758;45.458;11.062;2024-02-14T12:00:40;101869.12;;;14.54;58.83
76808;BME280;65758;45.458;11.062;2024-02-14T12:03:12;101869.59;;;14.57;57.74
76808;BME280;65758;45.458;11.062;2024-02-14T12:05:40;101866.38;;;14.57;56.14
76808;BME280;65758;45.458;11.062;2024-02-14T12:08:08;101857.27;;;14.57;57.34
76808;BME280;65758;45.458;11.062;2024-02-14T12:10:36;101855.67;;;14.60;58.47
76808;BME280;65758;45.458;11.062;2024-02-14T12:13:10;101857.69;;;14.62;57.06
76808;BME280;65758;45.458;11.062;2024-02-14T12:15:39;101866.41;;;14.64;56.30
76808;BME280;65758;45.458;11.062;2024-02-14T12:18:09;101869.46;;;14.67;56.30
76808;BME280;65758;45.458;11.062;2024-02-14T12:20:41;101863.33;;;14.71;55.20
76808;BME280;65758;45.458;11.062;2024-02-14T12:23:15;101853.41;;;14.71;55.24
76808;BME280;65758;45.458;11.062;2024-02-14T12:25:45;101853.75;;;14.75;57.23
76808;BME280;65758;45.458;11.062;2024-02-14T12:28:16;101852.79;;;14.81;58.09
76808;BME280;65758;45.458;11.062;2024-02-14T12:30:48;101847.83;;;14.86;59.49
76808;BME280;65758;45.458;11.062;2024-02-14T12:33:25;101846.40;;;14.92;58.95
76808;BME280;65758;45.458;11.062;2024-02-14T12:35:54;101849.30;;;14.95;59.98
76808;BME280;65758;45.458;11.062;2024-02-14T12:38:22;101846.48;;;15.00;58.69
76808;BME280;65758;45.458;11.062;2024-02-14T12:40:50;101842.98;;;14.99;59.13
76808;BME280;65758;45.458;11.062;2024-02-14T12:43:20;101842.83;;;14.97;59.06
76808;BME280;65758;45.458;11.062;2024-02-14T12:45:47;101843.98;;;14.97;58.84
76808;BME280;65758;45.458;11.062;2024-02-14T12:48:22;101845.71;;;14.98;58.49
76808;BME280;65758;45.458;11.062;2024-02-14T12:50:49;101841.11;;;14.99;57.94
76808;BME280;65758;45.458;11.062;2024-02-14T12:53:18;101837.15;;;15.00;60.00
76808;BME280;65758;45.458;11.062;2024-02-14T12:55:46;101834.28;;;15.03;59.66
76808;BME280;65758;45.458;11.062;2024-02-14T12:58:13;101825.16;;;15.06;59.10